Archival Weather

Half Moon Bay

Half Moon Bay, California (KHAF)

Report from: Wednesday, December 6, 2023 6:35 AM PST
Current time: Saturday, February 24, 2024 7:25 AM PST

Current weather – Weather history – Daily summaries
Weather forecast

Present weatherMist
Temperature12.0°C (53.6°F)
Dew point12.0°C (53.6°F)
Winds 5 kts (2.6 m/s, 5.8 mph) South (180°)
Visibility3 mi. (4.8 km)
Clouds Ceiling: Overcast 400 ft. (122 m)
Altimeter30.06 in.Hg (1018 mB)
Relative humidity100 %
Density altitude-320 ft. (-98 m)
Remarks Fully automated report
Automated weather observing station with precipitation discriminator
Flight conditions Low Instrument Meteorological Conditions
Raw dataKHAF 061435Z AUTO 18005KT 3SM BR OVC004 12/12 A3006 RMK AO2
An error has occurred. This application may no longer respond until reloaded. Reload 🗙